createdAt,value
2023-08-07T00:00:08.483Z,18.36
2023-08-07T00:02:43.556Z,18.33
2023-08-07T00:05:16.987Z,18.30
2023-08-07T00:08:02.183Z,18.28
2023-08-07T00:10:45.093Z,18.30
2023-08-07T00:13:25.569Z,18.26
2023-08-07T00:16:11.434Z,18.24
2023-08-07T00:18:50.033Z,18.24
2023-08-07T00:21:23.415Z,18.23
2023-08-07T00:24:04.559Z,18.18
2023-08-07T00:26:45.890Z,18.15
2023-08-07T00:29:21.366Z,18.11
2023-08-07T00:31:58.429Z,18.06
2023-08-07T00:34:39.039Z,18.03
2023-08-07T00:37:24.827Z,17.94
2023-08-07T00:40:15.869Z,17.87
2023-08-07T00:42:58.588Z,17.87
2023-08-07T00:45:38.971Z,17.85
2023-08-07T00:48:22.935Z,17.82
2023-08-07T00:51:04.898Z,17.77
2023-08-07T00:53:46.694Z,17.75
2023-08-07T00:56:24.336Z,17.73
2023-08-07T00:59:02.382Z,17.72
2023-08-07T01:01:45.118Z,17.70
2023-08-07T01:04:20.310Z,17.69
2023-08-07T01:06:57.836Z,17.67
2023-08-07T01:09:36.828Z,17.67
2023-08-07T01:12:33.782Z,17.62
2023-08-07T01:15:29.218Z,17.64
2023-08-07T01:18:09.235Z,17.62
2023-08-07T01:20:49.955Z,17.60
2023-08-07T01:23:39.711Z,17.57
2023-08-07T01:26:22.773Z,17.54
2023-08-07T01:29:04.495Z,17.53
2023-08-07T01:31:52.864Z,17.51
2023-08-07T01:34:33.841Z,17.42
2023-08-07T01:37:09.408Z,17.45
2023-08-07T01:39:50.290Z,17.45
2023-08-07T01:42:27.365Z,17.45
2023-08-07T01:45:05.990Z,17.40
2023-08-07T01:47:38.317Z,17.46
2023-08-07T01:50:22.058Z,17.47
2023-08-07T01:53:03.970Z,17.49
2023-08-07T01:58:46.148Z,17.46
2023-08-07T02:01:28.600Z,17.42
2023-08-07T02:04:08.775Z,17.33
2023-08-07T02:06:47.914Z,17.27
2023-08-07T02:09:24.082Z,17.20
2023-08-07T02:12:05.080Z,17.21
2023-08-07T02:14:40.120Z,17.08
2023-08-07T02:17:17.461Z,17.15
2023-08-07T02:19:56.284Z,17.04
2023-08-07T02:22:31.577Z,17.02
2023-08-07T02:25:14.124Z,17.01
2023-08-07T02:27:57.617Z,16.96
2023-08-07T02:30:39.946Z,16.96
2023-08-07T02:33:27.973Z,16.95
2023-08-07T02:36:09.416Z,16.99
2023-08-07T02:38:50.607Z,16.96
2023-08-07T02:41:30.154Z,16.97
2023-08-07T02:44:21.019Z,16.98
2023-08-07T02:47:07.140Z,17.04
2023-08-07T02:49:46.602Z,17.07
2023-08-07T02:52:23.972Z,17.08
2023-08-07T02:55:04.007Z,17.12
2023-08-07T02:57:44.932Z,17.13
2023-08-07T03:00:44.955Z,17.15
2023-08-07T03:03:20.155Z,17.17
2023-08-07T03:06:08.064Z,17.18
2023-08-07T03:08:43.782Z,17.20
2023-08-07T03:11:26.687Z,17.18
2023-08-07T03:14:04.815Z,17.15
2023-08-07T03:16:46.032Z,17.15
2023-08-07T03:19:25.548Z,17.13
2023-08-07T03:22:17.169Z,17.12
2023-08-07T03:24:56.744Z,17.10
2023-08-07T03:27:37.554Z,17.09
2023-08-07T03:30:16.542Z,17.03
2023-08-07T03:32:58.841Z,17.05
2023-08-07T03:35:37.865Z,17.06
2023-08-07T03:38:10.158Z,17.05
2023-08-07T03:40:53.105Z,17.04
2023-08-07T03:43:29.770Z,16.98
2023-08-07T03:46:09.981Z,17.01
2023-08-07T03:48:54.738Z,17.02
2023-08-07T03:51:38.495Z,16.95
2023-08-07T03:54:18.403Z,17.04
2023-08-07T03:56:58.716Z,17.03
2023-08-07T03:59:31.449Z,17.02
2023-08-07T04:02:06.253Z,16.92
2023-08-07T04:04:45.931Z,17.05
2023-08-07T04:07:25.035Z,17.03
2023-08-07T04:10:03.900Z,16.98
2023-08-07T04:12:39.200Z,17.08
2023-08-07T04:15:31.108Z,17.00
2023-08-07T04:18:06.523Z,17.11
2023-08-07T04:20:43.990Z,17.11
2023-08-07T04:23:25.186Z,17.10
2023-08-07T04:26:00.163Z,17.08
2023-08-07T04:28:40.463Z,17.06
2023-08-07T04:31:19.787Z,17.08
2023-08-07T04:33:56.820Z,17.08
2023-08-07T04:36:36.903Z,17.06
2023-08-07T04:39:21.504Z,17.14
2023-08-07T04:41:57.270Z,17.17
2023-08-07T04:44:38.749Z,17.15
2023-08-07T04:47:14.727Z,17.14
2023-08-07T04:49:58.112Z,17.17
2023-08-07T04:52:36.793Z,17.22
2023-08-07T04:55:18.067Z,17.21
2023-08-07T04:57:59.189Z,17.20
2023-08-07T05:00:38.450Z,17.22
2023-08-07T05:03:08.996Z,17.26
2023-08-07T05:05:54.026Z,17.32
2023-08-07T05:08:39.532Z,17.38
2023-08-07T05:11:20.422Z,17.46
2023-08-07T05:13:57.029Z,17.52
2023-08-07T05:16:33.189Z,17.56
2023-08-07T05:19:06.722Z,17.62
2023-08-07T05:21:56.606Z,17.58
2023-08-07T05:24:40.599Z,17.70
2023-08-07T05:27:18.521Z,17.80
2023-08-07T05:29:51.318Z,17.79
2023-08-07T05:32:26.284Z,17.85
2023-08-07T05:34:59.371Z,17.86
2023-08-07T05:37:40.881Z,17.92
2023-08-07T05:40:31.795Z,17.94
2023-08-07T05:43:03.140Z,18.03
2023-08-07T05:45:38.504Z,18.05
2023-08-07T05:48:13.343Z,18.14
2023-08-07T05:51:00.333Z,18.22
2023-08-07T05:53:43.524Z,18.30
2023-08-07T05:56:37.111Z,18.38
2023-08-07T05:59:16.198Z,18.46
2023-08-07T06:01:58.961Z,18.55
2023-08-07T06:04:37.966Z,18.57
2023-08-07T06:07:15.936Z,18.63
2023-08-07T06:09:49.194Z,18.69
2023-08-07T06:12:30.283Z,18.80
2023-08-07T06:15:05.254Z,18.86
2023-08-07T06:17:46.231Z,18.91
2023-08-07T06:20:29.280Z,19.02
2023-08-07T06:23:15.917Z,19.07
2023-08-07T06:25:58.636Z,19.10
2023-08-07T06:28:41.685Z,19.32
2023-08-07T06:31:33.994Z,19.43
2023-08-07T06:34:17.560Z,19.47
2023-08-07T06:36:55.485Z,19.58
2023-08-07T06:42:40.139Z,19.82
2023-08-07T06:45:14.813Z,19.96
2023-08-07T06:47:47.250Z,20.01
2023-08-07T06:50:40.560Z,20.12
2023-08-07T06:53:12.572Z,20.25
2023-08-07T06:58:31.409Z,20.27
2023-08-07T07:01:14.628Z,20.40
2023-08-07T07:03:54.275Z,20.42
2023-08-07T07:06:29.688Z,20.44
2023-08-07T07:09:10.295Z,20.51
2023-08-07T07:11:43.330Z,20.60
2023-08-07T07:14:24.319Z,20.70
2023-08-07T07:17:08.502Z,20.69
2023-08-07T07:19:41.316Z,20.77
2023-08-07T07:22:19.548Z,20.88
2023-08-07T07:24:58.907Z,20.96
2023-08-07T07:27:36.809Z,21.04
2023-08-07T07:30:13.088Z,21.15
2023-08-07T07:33:02.506Z,21.21
2023-08-07T07:35:42.535Z,21.18
2023-08-07T07:38:15.793Z,21.32
2023-08-07T07:40:47.962Z,21.35
2023-08-07T07:43:24.202Z,21.45
2023-08-07T07:46:09.910Z,21.50
2023-08-07T07:48:54.663Z,21.61
2023-08-07T07:51:25.538Z,21.70
2023-08-07T07:54:13.732Z,21.75
2023-08-07T07:56:52.522Z,21.77
2023-08-07T07:59:35.004Z,21.86
2023-08-07T08:02:15.792Z,22.00
2023-08-07T08:04:55.574Z,22.08
2023-08-07T08:07:31.032Z,22.07
2023-08-07T08:10:05.989Z,22.17
2023-08-07T08:12:40.548Z,22.27
2023-08-07T08:15:26.412Z,22.34
2023-08-07T08:18:06.545Z,22.39
2023-08-07T08:20:45.891Z,22.43
2023-08-07T08:23:27.605Z,22.62
2023-08-07T08:26:06.772Z,22.67
2023-08-07T08:28:47.212Z,22.78
2023-08-07T08:31:37.763Z,22.86
2023-08-07T08:34:19.173Z,22.94
2023-08-07T08:37:05.126Z,23.00
2023-08-07T08:39:46.260Z,23.11
2023-08-07T08:42:26.927Z,23.18
2023-08-07T08:45:18.390Z,23.31
2023-08-07T08:47:53.804Z,23.30
2023-08-07T08:50:35.543Z,23.30
2023-08-07T08:53:17.723Z,23.24
2023-08-07T08:55:55.298Z,23.23
2023-08-07T08:58:41.860Z,23.32
2023-08-07T09:01:16.639Z,23.41
2023-08-07T09:03:54.807Z,23.53
2023-08-07T09:06:44.418Z,23.59
2023-08-07T09:09:26.114Z,23.63
2023-08-07T09:12:10.093Z,23.73
2023-08-07T09:14:50.207Z,23.75
2023-08-07T09:17:32.853Z,23.79
2023-08-07T09:20:09.408Z,23.92
2023-08-07T09:22:52.730Z,23.86
2023-08-07T09:25:46.798Z,23.86
2023-08-07T09:28:19.166Z,23.97
2023-08-07T09:31:03.152Z,24.01
2023-08-07T09:33:40.191Z,24.11
2023-08-07T09:36:17.993Z,24.07
2023-08-07T09:39:00.442Z,23.95
2023-08-07T09:41:42.039Z,24.06
2023-08-07T09:44:20.414Z,24.15
2023-08-07T09:46:54.953Z,24.27
2023-08-07T09:49:43.766Z,24.42
2023-08-07T09:52:22.434Z,24.52
2023-08-07T09:54:53.979Z,24.71
2023-08-07T09:57:32.392Z,24.68
2023-08-07T10:00:08.349Z,24.76
2023-08-07T10:03:11.034Z,24.77
2023-08-07T10:05:57.913Z,24.61
2023-08-07T10:08:32.449Z,24.56
2023-08-07T10:11:08.347Z,24.55
2023-08-07T10:13:56.220Z,24.71
2023-08-07T10:16:43.504Z,24.77
2023-08-07T10:19:23.336Z,24.76
2023-08-07T10:22:02.319Z,24.85
2023-08-07T10:24:37.783Z,24.90
2023-08-07T10:27:15.675Z,24.86
2023-08-07T10:30:08.282Z,24.64
2023-08-07T10:32:55.283Z,24.38
2023-08-07T10:35:37.737Z,24.27
2023-08-07T10:38:18.043Z,24.07
2023-08-07T10:44:03.627Z,23.91
2023-08-07T10:46:57.442Z,23.77
2023-08-07T10:49:57.208Z,23.97
2023-08-07T10:52:35.721Z,23.95
2023-08-07T10:55:19.549Z,23.90
2023-08-07T10:57:53.056Z,23.88
2023-08-07T11:00:34.495Z,23.90
2023-08-07T11:03:18.413Z,23.93
2023-08-07T11:05:55.198Z,24.15
2023-08-07T11:08:31.075Z,24.20
2023-08-07T11:11:08.737Z,24.42
2023-08-07T11:13:54.825Z,24.49
2023-08-07T11:16:30.582Z,24.54
2023-08-07T11:19:12.236Z,24.54
2023-08-07T11:21:52.393Z,24.51
2023-08-07T11:24:32.305Z,24.83
2023-08-07T11:29:56.647Z,25.32
2023-08-07T11:32:38.769Z,25.48
2023-08-07T11:35:18.406Z,25.69
2023-08-07T11:38:17.954Z,25.85
2023-08-07T11:40:52.413Z,25.97
2023-08-07T11:43:29.121Z,26.14
2023-08-07T11:46:04.908Z,26.09
2023-08-07T11:48:41.168Z,26.07
2023-08-07T11:51:25.278Z,25.86
2023-08-07T11:54:02.372Z,25.79
2023-08-07T11:56:38.632Z,25.76
2023-08-07T11:59:14.033Z,25.77
2023-08-07T12:01:52.713Z,25.67
2023-08-07T12:04:23.735Z,25.59
2023-08-07T12:07:06.303Z,25.62
2023-08-07T12:09:39.228Z,25.86
2023-08-07T12:12:17.664Z,26.03
2023-08-07T12:14:48.727Z,26.10
2023-08-07T12:17:25.833Z,26.19
2023-08-07T12:20:03.943Z,26.32
2023-08-07T12:22:43.434Z,26.41
2023-08-07T12:25:23.823Z,26.37
2023-08-07T12:27:59.752Z,26.17
2023-08-07T12:30:41.904Z,26.15
2023-08-07T12:33:14.109Z,25.93
2023-08-07T12:36:02.222Z,25.88
2023-08-07T12:38:46.339Z,26.01
2023-08-07T12:44:20.292Z,26.55
2023-08-07T12:47:10.295Z,26.74
2023-08-07T12:49:46.454Z,26.86
2023-08-07T12:52:24.485Z,26.71
2023-08-07T12:55:07.848Z,26.63
2023-08-07T12:57:47.185Z,26.68
2023-08-07T13:00:22.874Z,26.64
2023-08-07T13:02:57.962Z,26.82
2023-08-07T13:05:38.581Z,27.16
2023-08-07T13:08:12.258Z,27.39
2023-08-07T13:10:50.288Z,27.59
2023-08-07T13:13:35.491Z,27.73
2023-08-07T13:16:10.968Z,27.66
2023-08-07T13:18:52.507Z,27.62
2023-08-07T13:21:22.860Z,27.57
2023-08-07T13:23:57.941Z,27.51
2023-08-07T13:26:48.582Z,27.36
2023-08-07T13:29:23.228Z,27.16
2023-08-07T13:32:07.906Z,27.00
2023-08-07T13:34:46.704Z,26.97
2023-08-07T13:37:23.798Z,26.68
2023-08-07T13:39:58.082Z,26.51
2023-08-07T13:45:32.415Z,25.79
2023-08-07T13:48:15.057Z,25.55
2023-08-07T13:50:51.377Z,25.21
2023-08-07T13:53:25.986Z,24.88
2023-08-07T13:56:00.516Z,24.34
2023-08-07T13:58:38.884Z,23.70
2023-08-07T14:01:19.418Z,23.22
2023-08-07T14:03:56.779Z,23.00
2023-08-07T14:06:44.561Z,22.98
2023-08-07T14:09:26.557Z,23.01
2023-08-07T14:12:05.452Z,23.00
2023-08-07T14:14:56.826Z,22.95
2023-08-07T14:17:27.548Z,22.93
2023-08-07T14:20:06.632Z,22.91
2023-08-07T14:22:38.064Z,22.88
2023-08-07T14:25:13.607Z,22.74
2023-08-07T14:27:59.076Z,22.90
2023-08-07T14:30:53.494Z,22.86
2023-08-07T14:33:23.841Z,22.82
2023-08-07T14:36:03.564Z,22.81
2023-08-07T14:38:42.510Z,22.77
2023-08-07T14:41:20.885Z,22.79
2023-08-07T14:43:59.775Z,22.81
2023-08-07T14:46:53.386Z,22.86
2023-08-07T14:49:49.199Z,22.90
2023-08-07T14:52:24.653Z,22.79
2023-08-07T14:55:03.253Z,22.91
2023-08-07T14:57:49.437Z,22.89
2023-08-07T15:00:28.870Z,22.90
2023-08-07T15:03:19.872Z,22.86
2023-08-07T15:05:50.481Z,22.82
2023-08-07T15:11:03.179Z,22.83
2023-08-07T15:13:38.283Z,22.80
2023-08-07T15:16:19.535Z,22.80
2023-08-07T15:18:57.886Z,22.64
2023-08-07T15:21:32.652Z,22.71
2023-08-07T15:24:19.031Z,22.68
2023-08-07T15:26:54.187Z,22.68
2023-08-07T15:29:33.501Z,22.63
2023-08-07T15:32:24.110Z,22.57
2023-08-07T15:35:02.406Z,22.58
2023-08-07T15:37:41.592Z,22.44
2023-08-07T15:40:19.378Z,22.32
2023-08-07T15:42:54.157Z,22.33
2023-08-07T15:45:29.112Z,22.25
2023-08-07T15:48:11.377Z,22.18
2023-08-07T15:51:04.140Z,22.03
2023-08-07T15:53:43.474Z,21.96
2023-08-07T15:56:18.278Z,21.88
2023-08-07T15:58:55.210Z,21.74
2023-08-07T16:01:30.899Z,21.61
2023-08-07T16:04:16.117Z,21.72
2023-08-07T16:06:58.029Z,21.49
2023-08-07T16:09:38.186Z,21.15
2023-08-07T16:12:21.834Z,21.09
2023-08-07T16:15:00.206Z,21.08
2023-08-07T16:17:40.468Z,21.18
2023-08-07T16:20:20.614Z,21.24
2023-08-07T16:23:01.723Z,21.27
2023-08-07T16:25:41.839Z,21.35
2023-08-07T16:28:20.000Z,21.33
2023-08-07T16:30:57.054Z,21.40
2023-08-07T16:33:40.044Z,21.36
2023-08-07T16:36:17.623Z,21.33
2023-08-07T16:39:06.411Z,21.40
2023-08-07T16:41:50.354Z,21.40
2023-08-07T16:44:23.136Z,21.43
2023-08-07T16:47:04.267Z,21.47
2023-08-07T16:49:37.301Z,21.52
2023-08-07T16:52:17.927Z,21.41
2023-08-07T16:55:19.692Z,21.47
2023-08-07T16:58:02.305Z,21.63
2023-08-07T17:00:43.268Z,21.62
2023-08-07T17:03:22.540Z,21.60
2023-08-07T17:05:54.776Z,21.38
2023-08-07T17:08:28.534Z,21.52
2023-08-07T17:11:23.498Z,21.47
2023-08-07T17:14:09.212Z,21.41
2023-08-07T17:16:49.496Z,21.40
2023-08-07T17:19:29.286Z,21.40
2023-08-07T17:22:08.424Z,21.41
2023-08-07T17:24:50.768Z,21.39
2023-08-07T17:27:31.847Z,21.31
2023-08-07T17:30:08.852Z,21.35
2023-08-07T17:32:53.113Z,21.33
2023-08-07T17:35:33.600Z,21.23
2023-08-07T17:38:14.265Z,21.14
2023-08-07T17:40:54.109Z,21.28
2023-08-07T17:43:39.242Z,21.25
2023-08-07T17:46:17.652Z,21.26
2023-08-07T17:48:54.701Z,21.22
2023-08-07T17:51:31.571Z,21.16
2023-08-07T17:54:06.463Z,21.17
2023-08-07T17:56:38.509Z,21.16
2023-08-07T17:59:21.116Z,21.01
2023-08-07T18:02:02.486Z,21.09
2023-08-07T18:04:32.733Z,21.08
2023-08-07T18:07:05.137Z,21.06
2023-08-07T18:09:39.509Z,21.07
2023-08-07T18:12:15.471Z,21.06
2023-08-07T18:15:01.543Z,20.97
2023-08-07T18:17:34.077Z,21.00
2023-08-07T18:20:16.649Z,21.25
2023-08-07T18:22:55.282Z,21.57
2023-08-07T18:25:34.426Z,21.82
2023-08-07T18:28:13.466Z,22.06
2023-08-07T18:30:54.862Z,22.31
2023-08-07T18:33:28.754Z,22.42
2023-08-07T18:36:09.168Z,22.61
2023-08-07T18:38:43.070Z,22.71
2023-08-07T18:41:17.381Z,22.81
2023-08-07T18:44:09.519Z,22.82
2023-08-07T18:46:47.756Z,22.88
2023-08-07T18:49:29.747Z,22.90
2023-08-07T18:52:02.422Z,22.91
2023-08-07T18:54:44.804Z,22.89
2023-08-07T18:57:25.361Z,22.90
2023-08-07T19:00:01.593Z,22.91
2023-08-07T19:02:46.517Z,22.91
2023-08-07T19:05:26.851Z,22.89
2023-08-07T19:08:03.268Z,22.82
2023-08-07T19:10:41.084Z,22.78
2023-08-07T19:13:15.167Z,22.76
2023-08-07T19:15:51.108Z,22.68
2023-08-07T19:18:28.558Z,22.65
2023-08-07T19:21:09.003Z,22.58
2023-08-07T19:23:48.166Z,22.54
2023-08-07T19:26:20.042Z,22.54
2023-08-07T19:28:51.675Z,22.53
2023-08-07T19:31:32.840Z,22.44
2023-08-07T19:34:18.320Z,22.37
2023-08-07T19:36:52.065Z,22.22
2023-08-07T19:39:26.767Z,22.04
2023-08-07T19:41:57.185Z,21.93
2023-08-07T19:44:29.157Z,21.86
2023-08-07T19:47:06.816Z,21.82
2023-08-07T19:49:46.858Z,21.80
2023-08-07T19:52:21.356Z,21.80
2023-08-07T19:55:08.998Z,21.63
2023-08-07T19:57:51.011Z,21.47
2023-08-07T20:00:24.465Z,21.26
2023-08-07T20:03:02.759Z,21.02
2023-08-07T20:05:53.116Z,20.88
2023-08-07T20:08:33.523Z,20.73
2023-08-07T20:11:10.968Z,20.66
2023-08-07T20:13:48.739Z,20.52
2023-08-07T20:16:36.364Z,20.50
2023-08-07T20:19:14.092Z,20.40
2023-08-07T20:22:04.134Z,20.39
2023-08-07T20:24:36.161Z,20.29
2023-08-07T20:27:13.716Z,20.23
2023-08-07T20:29:46.196Z,20.27
2023-08-07T20:32:24.673Z,20.24
2023-08-07T20:34:54.975Z,20.03
2023-08-07T20:37:36.814Z,19.97
2023-08-07T20:40:21.641Z,19.93
2023-08-07T20:42:59.164Z,19.83
2023-08-07T20:45:47.207Z,19.68
2023-08-07T20:48:21.624Z,19.60
2023-08-07T20:51:01.180Z,19.49
2023-08-07T20:53:50.416Z,19.36
2023-08-07T20:56:31.876Z,19.33
2023-08-07T20:59:13.271Z,19.33
2023-08-07T21:01:52.877Z,19.12
2023-08-07T21:04:39.722Z,19.02
2023-08-07T21:07:19.117Z,18.93
2023-08-07T21:10:10.981Z,18.94
2023-08-07T21:12:49.551Z,18.90
2023-08-07T21:15:29.589Z,18.68
2023-08-07T21:18:29.249Z,18.68
2023-08-07T21:21:08.834Z,18.49
2023-08-07T21:23:45.052Z,18.50
2023-08-07T21:26:34.369Z,18.54
2023-08-07T21:29:13.729Z,18.44
2023-08-07T21:31:47.921Z,18.34
2023-08-07T21:34:21.022Z,18.25
2023-08-07T21:36:55.030Z,18.21
2023-08-07T21:39:30.955Z,18.15
2023-08-07T21:42:10.952Z,18.16
2023-08-07T21:44:52.474Z,18.15
2023-08-07T21:47:39.465Z,18.00
2023-08-07T21:50:19.391Z,17.91
2023-08-07T21:53:14.624Z,17.76
2023-08-07T21:55:56.066Z,17.86
2023-08-07T21:58:49.638Z,17.93
2023-08-07T22:01:23.426Z,17.93
2023-08-07T22:04:03.657Z,17.83
2023-08-07T22:06:47.488Z,17.88
2023-08-07T22:09:20.854Z,17.93
2023-08-07T22:11:52.693Z,17.91
2023-08-07T22:14:54.842Z,17.85
2023-08-07T22:17:28.061Z,17.80
2023-08-07T22:20:05.377Z,17.69
2023-08-07T22:22:41.593Z,17.73
2023-08-07T22:25:24.930Z,17.69
2023-08-07T22:28:04.528Z,17.68
2023-08-07T22:30:55.123Z,17.68
2023-08-07T22:33:33.350Z,17.70
2023-08-07T22:36:16.405Z,17.54
2023-08-07T22:38:49.646Z,17.63
2023-08-07T22:41:24.959Z,17.62
2023-08-07T22:44:18.604Z,17.62
2023-08-07T22:47:11.056Z,17.62
2023-08-07T22:49:52.518Z,17.58
2023-08-07T22:52:24.998Z,17.62
2023-08-07T22:55:08.684Z,17.60
2023-08-07T22:57:49.235Z,17.56
2023-08-07T23:00:24.061Z,17.56
2023-08-07T23:03:00.083Z,17.49
2023-08-07T23:05:36.432Z,17.60
2023-08-07T23:08:16.177Z,17.54
2023-08-07T23:10:54.797Z,17.56
2023-08-07T23:13:36.780Z,17.51
2023-08-07T23:16:08.952Z,17.51
2023-08-07T23:19:10.665Z,17.47
2023-08-07T23:21:47.667Z,17.40
2023-08-07T23:24:21.866Z,17.33
2023-08-07T23:27:03.191Z,17.54
2023-08-07T23:29:35.016Z,17.58
2023-08-07T23:32:12.107Z,17.57
2023-08-07T23:34:52.720Z,17.58
2023-08-07T23:37:27.330Z,17.57
2023-08-07T23:40:07.342Z,17.59
2023-08-07T23:42:46.605Z,17.56
2023-08-07T23:45:25.718Z,17.53
2023-08-07T23:48:02.884Z,17.51
2023-08-07T23:50:52.018Z,17.51
2023-08-07T23:53:40.437Z,17.53
2023-08-07T23:56:19.235Z,17.49
2023-08-07T23:58:55.772Z,17.48
